Details for BA CityFlyer at EGLC




Go Back


Latest METAR
Local Time

EGLC 211420Z AUTO 03005KT 330V080 7000 SCT023 06/00 Q1026

21/02/2018, 15:04:06

Description
Results
BA CityFlyer Logo
Number of Pilots based at EGLC
0 Pilots Based here
Number of BA CityFlyer Flights Departed from EGLC
0 Flights Departed
Number of BA CityFlyer Flights Arrived at EGLC
0 Flights Arrived
Number of BA CityFlyer Schedules Departing from EGLC
109 Schedules
Number of BA CityFlyer Schedules Arriving at EGLC
110 Schedules
Number of BA CityFlyer Schedules Departing from EGLC availible today
67 Schedules Today
Number of BA CityFlyer Schedules Arriving at EGLC availible today
68 Schedules Today
Average Landing Rate at EGLC
-430 fpm
BA CityFlyer Average Landing Rate at EGLC
0 fpm
Total Fuel Purchased at EGLC by BA CityFlyer
0.00 kgs / 0.00 lbs

Pilots Based at EGLC


Pilot ID
Pilot Name
Pilot Rank
No. of Flights
No. of Flying Hours
There are no pilots assigned to this hub!   Will you be the first?
Content